createdAt,value
2017-09-11T00:00:54.846Z,96.50
2017-09-11T00:03:22.361Z,96.70
2017-09-11T00:05:49.907Z,97.00
2017-09-11T00:08:17.422Z,97.10
2017-09-11T00:10:44.959Z,97.20
2017-09-11T00:13:12.473Z,97.20
2017-09-11T00:15:40.010Z,97.30
2017-09-11T00:18:07.527Z,97.50
2017-09-11T00:20:35.062Z,97.50
2017-09-11T00:23:02.596Z,96.50
2017-09-11T00:25:30.134Z,96.40
2017-09-11T00:27:57.652Z,96.70
2017-09-11T00:30:25.195Z,97.20
2017-09-11T00:32:52.714Z,97.40
2017-09-11T00:35:20.250Z,97.40
2017-09-11T00:37:47.778Z,97.20
2017-09-11T00:40:15.309Z,96.20
2017-09-11T00:42:43.603Z,96.70
2017-09-11T00:45:11.135Z,96.70
2017-09-11T00:47:38.651Z,97.10
2017-09-11T00:50:06.195Z,97.40
2017-09-11T00:52:33.723Z,97.60
2017-09-11T00:55:01.261Z,97.90
2017-09-11T00:57:29.543Z,97.90
2017-09-11T00:59:57.082Z,97.90
2017-09-11T01:02:24.610Z,97.60
2017-09-11T01:04:52.138Z,97.60
2017-09-11T01:07:19.666Z,98.00
2017-09-11T01:09:47.946Z,98.10
2017-09-11T01:12:16.251Z,97.50
2017-09-11T01:14:43.766Z,97.50
2017-09-11T01:17:11.300Z,97.40
2017-09-11T01:19:38.816Z,97.30
2017-09-11T01:22:06.346Z,97.70
2017-09-11T01:24:33.859Z,98.10
2017-09-11T01:27:01.400Z,98.60
2017-09-11T01:29:28.926Z,98.60
2017-09-11T01:31:56.470Z,98.70
2017-09-11T01:34:23.987Z,97.80
2017-09-11T01:36:51.526Z,97.00
2017-09-11T01:39:19.042Z,97.60
2017-09-11T01:41:46.574Z,98.40
2017-09-11T01:44:14.089Z,98.20
2017-09-11T01:46:41.627Z,98.00
2017-09-11T01:49:09.148Z,97.90
2017-09-11T01:51:36.690Z,98.30
2017-09-11T01:54:04.201Z,99.20
2017-09-11T01:56:31.739Z,99.30
2017-09-11T01:59:00.022Z,99.20
2017-09-11T02:01:28.322Z,99.30
2017-09-11T02:03:55.870Z,99.30
2017-09-11T02:06:24.167Z,98.00
2017-09-11T02:08:51.679Z,98.00
2017-09-11T02:11:19.215Z,98.40
2017-09-11T02:13:46.735Z,98.80
2017-09-11T02:16:14.284Z,98.90
2017-09-11T02:18:42.566Z,99.20
2017-09-11T02:21:10.103Z,99.20
2017-09-11T02:23:37.618Z,99.00
2017-09-11T02:26:05.154Z,99.30
2017-09-11T02:28:33.442Z,99.40
2017-09-11T02:31:01.734Z,99.30
2017-09-11T02:33:29.252Z,99.30
2017-09-11T02:35:57.560Z,99.20
2017-09-11T02:38:25.074Z,99.20
2017-09-11T02:40:52.614Z,98.90
2017-09-11T02:43:20.130Z,97.80
2017-09-11T02:45:47.665Z,97.60
2017-09-11T02:48:15.175Z,98.10
2017-09-11T02:50:42.711Z,98.70
2017-09-11T02:53:10.995Z,99.30
2017-09-11T02:55:39.301Z,99.40
2017-09-11T02:58:06.814Z,99.40
2017-09-11T03:00:35.119Z,99.40
2017-09-11T03:03:02.647Z,99.30
2017-09-11T03:05:30.182Z,99.60
2017-09-11T03:07:57.703Z,99.70
2017-09-11T03:10:25.234Z,99.70
2017-09-11T03:12:52.770Z,99.80
2017-09-11T03:15:20.285Z,99.90
2017-09-11T03:17:47.823Z,99.90
2017-09-11T03:20:16.111Z,97.30
2017-09-11T03:22:43.651Z,97.30
2017-09-11T03:25:11.938Z,98.20
2017-09-11T03:27:40.299Z,98.30
2017-09-11T03:30:07.816Z,98.30
2017-09-11T03:32:35.354Z,97.50
2017-09-11T03:35:02.884Z,98.20
2017-09-11T03:37:31.189Z,99.30
2017-09-11T03:39:58.715Z,99.30
2017-09-11T03:42:26.254Z,99.90
2017-09-11T03:44:53.778Z,99.90
2017-09-11T03:47:21.326Z,99.90
2017-09-11T03:49:48.838Z,99.60
2017-09-11T03:52:16.374Z,98.30
2017-09-11T03:54:43.896Z,98.50
2017-09-11T03:57:12.194Z,99.20
2017-09-11T03:59:39.718Z,99.20
2017-09-11T04:02:08.024Z,98.80
2017-09-11T04:04:35.542Z,98.70
2017-09-11T04:07:03.079Z,98.90
2017-09-11T04:09:30.607Z,99.30
2017-09-11T04:11:58.146Z,99.20
2017-09-11T04:14:25.670Z,99.10
2017-09-11T04:16:53.275Z,99.40
2017-09-11T04:19:20.802Z,99.00
2017-09-11T04:21:48.352Z,99.10
2017-09-11T04:24:15.869Z,99.10
2017-09-11T04:26:43.406Z,99.10
2017-09-11T04:29:11.694Z,99.90
2017-09-11T04:31:39.242Z,99.90
2017-09-11T04:34:06.768Z,99.90
2017-09-11T04:36:34.311Z,99.90
2017-09-11T04:39:01.838Z,99.90
2017-09-11T04:41:29.393Z,99.90
2017-09-11T04:43:56.911Z,99.90
2017-09-11T04:46:24.463Z,99.90
2017-09-11T04:48:51.982Z,99.90
2017-09-11T04:51:20.285Z,99.90
2017-09-11T04:53:47.811Z,99.90
2017-09-11T04:56:16.115Z,99.50
2017-09-11T04:58:43.635Z,99.50
2017-09-11T05:01:11.174Z,99.50
2017-09-11T05:03:38.694Z,99.50
2017-09-11T05:06:06.239Z,99.90
2017-09-11T05:08:34.529Z,99.90
2017-09-11T05:11:02.067Z,99.90
2017-09-11T05:13:30.358Z,99.80
2017-09-11T05:15:57.897Z,99.80
2017-09-11T05:18:25.415Z,99.80
2017-09-11T05:20:52.931Z,99.70
2017-09-11T05:23:21.235Z,99.50
2017-09-11T05:25:48.759Z,99.40
2017-09-11T05:28:17.079Z,98.10
2017-09-11T05:30:44.602Z,98.10
2017-09-11T05:33:12.912Z,93.20
2017-09-11T05:35:40.435Z,93.20
2017-09-11T05:38:08.743Z,89.00
2017-09-11T05:40:36.271Z,89.20
2017-09-11T05:43:03.809Z,89.30
2017-09-11T05:45:31.331Z,86.00
2017-09-11T05:47:58.874Z,83.30
2017-09-11T05:50:26.394Z,85.40
2017-09-11T05:52:53.939Z,87.90
2017-09-11T05:55:22.228Z,91.20
2017-09-11T05:57:49.771Z,91.20
2017-09-11T06:00:18.063Z,92.90
2017-09-11T06:02:45.600Z,92.90
2017-09-11T06:05:13.888Z,94.40
2017-09-11T06:07:42.192Z,95.00
2017-09-11T06:10:09.723Z,95.00
2017-09-11T06:12:38.030Z,96.10
2017-09-11T06:15:05.551Z,96.10
2017-09-11T06:17:33.850Z,96.40
2017-09-11T06:20:02.132Z,96.50
2017-09-11T06:22:29.666Z,96.50
2017-09-11T06:24:57.951Z,96.30
2017-09-11T06:27:26.256Z,96.20
2017-09-11T06:29:53.775Z,96.20
2017-09-11T06:32:21.319Z,96.80
2017-09-11T06:34:48.837Z,96.90
2017-09-11T06:37:16.381Z,96.80
2017-09-11T06:39:43.908Z,96.00
2017-09-11T06:42:11.451Z,95.90
2017-09-11T06:44:38.966Z,94.50
2017-09-11T06:47:06.507Z,93.80
2017-09-11T06:49:34.799Z,93.20
2017-09-11T06:52:02.334Z,93.10
2017-09-11T06:54:30.623Z,93.20
2017-09-11T06:56:58.926Z,93.20
2017-09-11T06:59:26.450Z,93.20
2017-09-11T07:01:54.762Z,93.10
2017-09-11T07:04:22.283Z,93.10
2017-09-11T07:06:49.827Z,92.60
2017-09-11T07:09:17.352Z,93.20
2017-09-11T07:11:44.899Z,92.90
2017-09-11T07:14:12.423Z,93.10
2017-09-11T07:16:39.953Z,92.80
2017-09-11T07:19:07.477Z,93.10
2017-09-11T07:21:35.020Z,93.00
2017-09-11T07:24:03.307Z,93.30
2017-09-11T07:26:30.847Z,93.30
2017-09-11T07:28:59.140Z,92.70
2017-09-11T07:31:27.450Z,92.60
2017-09-11T07:33:54.967Z,92.60
2017-09-11T07:36:23.254Z,92.40
2017-09-11T07:38:51.558Z,92.20
2017-09-11T07:41:19.082Z,92.20
2017-09-11T07:43:46.626Z,92.20
2017-09-11T07:46:14.155Z,92.30
2017-09-11T07:48:41.699Z,92.80
2017-09-11T07:51:09.986Z,91.90
2017-09-11T07:53:38.287Z,91.80
2017-09-11T07:56:05.819Z,91.80
2017-09-11T07:58:34.131Z,91.40
2017-09-11T08:01:01.656Z,91.40
2017-09-11T08:03:29.970Z,90.90
2017-09-11T08:05:57.490Z,90.90
2017-09-11T08:08:26.542Z,91.20
2017-09-11T08:10:54.076Z,91.10
2017-09-11T08:13:21.623Z,91.00
2017-09-11T08:15:49.148Z,90.50
2017-09-11T08:18:16.682Z,91.10
2017-09-11T08:20:44.201Z,90.80
2017-09-11T08:23:11.739Z,91.30
2017-09-11T08:25:40.047Z,93.00
2017-09-11T08:28:07.580Z,92.90
2017-09-11T08:30:35.123Z,92.50
2017-09-11T08:33:03.415Z,94.10
2017-09-11T08:35:31.724Z,93.90
2017-09-11T08:37:59.252Z,93.90
2017-09-11T08:40:27.563Z,94.00
2017-09-11T08:42:55.085Z,94.00
2017-09-11T08:45:23.425Z,93.70
2017-09-11T08:47:50.936Z,93.70
2017-09-11T08:50:18.488Z,92.80
2017-09-11T08:52:46.019Z,93.30
2017-09-11T08:55:14.315Z,93.40
2017-09-11T08:57:41.859Z,93.40
2017-09-11T09:00:10.144Z,92.20
2017-09-11T09:02:37.683Z,92.10
2017-09-11T09:05:05.204Z,92.50
2017-09-11T09:07:33.515Z,93.20
2017-09-11T09:10:01.040Z,92.80
2017-09-11T09:12:28.578Z,92.70
2017-09-11T09:14:56.107Z,92.70
2017-09-11T09:17:23.648Z,92.70
2017-09-11T09:19:51.171Z,92.20
2017-09-11T09:22:18.712Z,92.00
2017-09-11T09:24:46.230Z,91.70
2017-09-11T09:27:13.776Z,91.60
2017-09-11T09:29:42.068Z,91.10
2017-09-11T09:32:09.615Z,91.10
2017-09-11T09:34:37.898Z,91.40
2017-09-11T09:37:05.415Z,91.30
2017-09-11T09:39:32.951Z,91.20
2017-09-11T09:42:00.470Z,91.00
2017-09-11T09:44:28.018Z,91.20
2017-09-11T09:46:55.548Z,91.50
2017-09-11T09:49:23.087Z,91.10
2017-09-11T09:51:50.606Z,91.20
2017-09-11T09:54:18.151Z,91.20
2017-09-11T09:56:45.674Z,91.10
2017-09-11T09:59:13.208Z,91.40
2017-09-11T10:01:41.495Z,92.20
2017-09-11T10:04:09.041Z,91.80
2017-09-11T10:06:36.562Z,91.70
2017-09-11T10:09:04.864Z,92.00
2017-09-11T10:11:32.379Z,91.90
2017-09-11T10:14:00.699Z,91.40
2017-09-11T10:16:28.224Z,91.60
2017-09-11T10:18:56.505Z,91.30
2017-09-11T10:21:24.047Z,91.30
2017-09-11T10:23:52.334Z,92.80
2017-09-11T10:26:20.642Z,92.80
2017-09-11T10:28:48.171Z,92.80
2017-09-11T10:31:16.479Z,93.20
2017-09-11T10:33:43.994Z,93.20
2017-09-11T10:36:12.306Z,94.00
2017-09-11T10:38:39.831Z,94.00
2017-09-11T10:41:08.139Z,94.50
2017-09-11T10:43:35.663Z,94.50
2017-09-11T10:46:03.202Z,94.50
2017-09-11T10:48:30.719Z,94.90
2017-09-11T10:50:58.273Z,95.50
2017-09-11T10:53:25.803Z,95.40
2017-09-11T10:55:54.092Z,94.70
2017-09-11T10:58:22.394Z,94.90
2017-09-11T11:00:49.911Z,94.90
2017-09-11T11:03:17.455Z,95.00
2017-09-11T11:05:44.978Z,94.90
2017-09-11T11:08:12.522Z,93.50
2017-09-11T11:10:40.046Z,92.90
2017-09-11T11:13:07.582Z,92.90
2017-09-11T11:15:35.111Z,92.90
2017-09-11T11:18:02.658Z,92.60
2017-09-11T11:20:30.175Z,91.80
2017-09-11T11:22:57.710Z,91.70
2017-09-11T11:25:25.227Z,92.20
2017-09-11T11:27:52.776Z,92.00
2017-09-11T11:30:20.291Z,92.30
2017-09-11T11:32:48.599Z,92.10
2017-09-11T11:35:16.122Z,92.50
2017-09-11T11:37:44.430Z,92.20
2017-09-11T11:40:11.950Z,92.20
2017-09-11T11:42:40.239Z,91.10
2017-09-11T11:45:08.552Z,90.80
2017-09-11T11:47:36.079Z,90.80
2017-09-11T11:50:04.384Z,88.80
2017-09-11T11:52:31.902Z,88.50
2017-09-11T11:55:34.034Z,88.00
2017-09-11T11:58:01.574Z,83.90
2017-09-11T12:00:29.099Z,81.70
2017-09-11T12:02:57.414Z,81.50
2017-09-11T12:05:24.935Z,80.70
2017-09-11T12:07:53.215Z,83.60
2017-09-11T12:10:21.523Z,82.80
2017-09-11T12:12:49.050Z,82.80
2017-09-11T12:15:17.356Z,78.40
2017-09-11T12:17:44.871Z,78.30
2017-09-11T12:20:12.417Z,75.90
2017-09-11T12:22:39.939Z,77.00
2017-09-11T12:25:07.475Z,77.20
2017-09-11T12:27:35.758Z,76.40
2017-09-11T12:30:03.299Z,76.40
2017-09-11T12:32:31.588Z,74.90
2017-09-11T12:34:59.129Z,74.80
2017-09-11T12:37:27.453Z,72.10
2017-09-11T12:39:54.986Z,71.90
2017-09-11T12:42:23.277Z,71.90
2017-09-11T12:44:50.808Z,71.70
2017-09-11T12:47:19.123Z,72.90
2017-09-11T12:49:46.639Z,72.80
2017-09-11T12:52:14.186Z,74.50
2017-09-11T12:54:41.750Z,71.10
2017-09-11T12:57:09.302Z,71.50
2017-09-11T12:59:36.825Z,66.50
2017-09-11T13:02:04.362Z,65.50
2017-09-11T13:04:31.879Z,63.70
2017-09-11T13:06:59.415Z,65.90
2017-09-11T13:09:26.931Z,68.70
2017-09-11T13:11:55.239Z,69.20
2017-09-11T13:14:22.763Z,69.20
2017-09-11T13:16:51.095Z,69.40
2017-09-11T13:19:18.612Z,69.50
2017-09-11T13:21:46.142Z,70.00
2017-09-11T13:24:13.682Z,67.60
2017-09-11T13:26:41.197Z,66.60
2017-09-11T13:29:08.739Z,66.40
2017-09-11T13:31:37.037Z,64.60
2017-09-11T13:34:04.574Z,64.50
2017-09-11T13:36:32.858Z,65.70
2017-09-11T13:39:01.163Z,67.50
2017-09-11T13:41:28.688Z,67.50
2017-09-11T13:43:56.994Z,63.60
2017-09-11T13:46:24.519Z,63.60
2017-09-11T13:48:52.067Z,62.20
2017-09-11T13:51:19.582Z,60.40
2017-09-11T13:53:47.135Z,64.00
2017-09-11T13:56:14.664Z,62.00
2017-09-11T13:58:42.947Z,62.40
2017-09-11T14:03:44.215Z,62.20
2017-09-11T14:06:12.518Z,63.00
2017-09-11T14:08:40.043Z,63.00
2017-09-11T14:11:08.355Z,62.80
2017-09-11T14:13:35.887Z,62.80
2017-09-11T14:16:04.190Z,64.60
2017-09-11T14:18:31.706Z,64.40
2017-09-11T14:20:59.252Z,63.00
2017-09-11T14:23:26.771Z,65.30
2017-09-11T14:25:54.308Z,65.40
2017-09-11T14:28:22.589Z,64.40
2017-09-11T14:30:50.131Z,64.30
2017-09-11T14:33:18.425Z,63.40
2017-09-11T14:35:45.986Z,63.20
2017-09-11T14:38:13.504Z,62.00
2017-09-11T14:40:41.026Z,63.40
2017-09-11T14:43:08.576Z,63.50
2017-09-11T14:45:36.098Z,62.70
2017-09-11T14:48:03.643Z,62.60
2017-09-11T14:50:31.159Z,63.00
2017-09-11T14:52:58.695Z,62.30
2017-09-11T14:55:26.992Z,62.50
2017-09-11T14:57:54.532Z,62.60
2017-09-11T15:00:22.825Z,64.70
2017-09-11T15:02:50.372Z,64.70
2017-09-11T15:05:18.656Z,63.90
2017-09-11T15:07:46.211Z,63.90
2017-09-11T15:10:14.493Z,63.30
2017-09-11T15:12:42.047Z,63.20
2017-09-11T15:15:10.357Z,65.00
2017-09-11T15:17:37.883Z,65.00
2017-09-11T15:20:06.187Z,63.50
2017-09-11T15:22:33.708Z,63.50
2017-09-11T15:25:02.019Z,63.70
2017-09-11T15:27:29.538Z,63.60
2017-09-11T15:29:57.075Z,63.60
2017-09-11T15:32:24.603Z,63.50
2017-09-11T15:34:52.143Z,60.40
2017-09-11T15:37:19.666Z,60.50
2017-09-11T15:39:47.211Z,61.80
2017-09-11T15:42:15.494Z,63.10
2017-09-11T15:44:43.803Z,62.40
2017-09-11T15:47:11.323Z,62.40
2017-09-11T15:49:39.638Z,64.10
2017-09-11T15:52:07.167Z,64.00
2017-09-11T15:54:34.692Z,63.80
2017-09-11T15:57:02.235Z,62.80
2017-09-11T15:59:29.759Z,62.30
2017-09-11T16:01:58.067Z,62.50
2017-09-11T16:04:25.587Z,61.50
2017-09-11T16:06:53.132Z,60.20
2017-09-11T16:09:20.658Z,62.00
2017-09-11T16:11:48.205Z,61.50
2017-09-11T16:14:15.731Z,59.80
2017-09-11T16:16:43.272Z,59.70
2017-09-11T16:19:10.791Z,60.50
2017-09-11T16:21:38.331Z,60.90
2017-09-11T16:24:06.616Z,64.10
2017-09-11T16:26:34.158Z,64.10
2017-09-11T16:29:02.439Z,65.50
2017-09-11T16:31:29.980Z,65.50
2017-09-11T16:33:57.504Z,66.70
2017-09-11T16:36:25.055Z,66.60
2017-09-11T16:38:52.582Z,68.60
2017-09-11T16:41:20.103Z,68.00
2017-09-11T16:43:48.419Z,69.20
2017-09-11T16:46:15.938Z,69.20
2017-09-11T16:48:44.249Z,69.90
2017-09-11T16:51:11.766Z,69.80
2017-09-11T16:53:40.075Z,70.00
2017-09-11T16:56:07.600Z,69.90
2017-09-11T16:58:35.907Z,71.90
2017-09-11T17:01:03.436Z,71.60
2017-09-11T17:03:30.985Z,72.00
2017-09-11T17:05:58.511Z,72.10
2017-09-11T17:08:26.062Z,72.60
2017-09-11T17:10:53.651Z,73.60
2017-09-11T17:13:21.186Z,73.80
2017-09-11T17:15:48.727Z,74.50
2017-09-11T17:18:16.266Z,74.80
2017-09-11T17:20:44.572Z,76.10
2017-09-11T17:23:12.091Z,76.10
2017-09-11T17:25:39.639Z,76.60
2017-09-11T17:28:07.155Z,77.90
2017-09-11T17:30:34.690Z,77.40
2017-09-11T17:33:02.982Z,78.20
2017-09-11T17:35:30.527Z,78.20
2017-09-11T17:37:58.815Z,79.70
2017-09-11T17:40:26.357Z,79.70
2017-09-11T17:42:54.654Z,80.70
2017-09-11T17:45:22.203Z,80.60
2017-09-11T17:47:50.496Z,81.80
2017-09-11T17:50:18.019Z,81.60
2017-09-11T17:52:45.564Z,82.30
2017-09-11T17:55:13.087Z,82.90
2017-09-11T17:57:40.628Z,83.30
2017-09-11T18:00:08.150Z,84.00
2017-09-11T18:02:35.691Z,84.00
2017-09-11T18:05:03.211Z,84.40
2017-09-11T18:07:30.767Z,84.70
2017-09-11T18:09:58.286Z,85.00
2017-09-11T18:12:26.593Z,85.50
2017-09-11T18:14:54.115Z,85.40
2017-09-11T18:17:22.427Z,85.70
2017-09-11T18:19:49.953Z,85.70
2017-09-11T18:22:18.247Z,86.80
2017-09-11T18:24:45.789Z,86.90
2017-09-11T18:27:13.326Z,87.10
2017-09-11T18:29:40.868Z,86.80
2017-09-11T18:32:08.383Z,86.50
2017-09-11T18:34:35.928Z,86.90
2017-09-11T18:37:03.447Z,87.60
2017-09-11T18:39:31.751Z,88.10
2017-09-11T18:41:59.274Z,87.80
2017-09-11T18:44:26.823Z,88.30
2017-09-11T18:46:54.353Z,88.70
2017-09-11T18:49:21.900Z,88.40
2017-09-11T18:51:49.420Z,88.20
2017-09-11T18:54:17.711Z,87.90
2017-09-11T18:56:46.021Z,86.90
2017-09-11T18:59:13.544Z,86.80
2017-09-11T19:01:41.847Z,86.70
2017-09-11T19:04:09.367Z,86.70
2017-09-11T19:06:36.915Z,86.80
2017-09-11T19:09:04.439Z,87.90
2017-09-11T19:11:32.023Z,86.90
2017-09-11T19:13:59.539Z,87.30
2017-09-11T19:16:27.082Z,87.40
2017-09-11T19:18:55.367Z,86.90
2017-09-11T19:21:22.915Z,86.90
2017-09-11T19:23:51.203Z,85.90
2017-09-11T19:26:19.511Z,85.40
2017-09-11T19:28:47.036Z,85.40
2017-09-11T19:31:15.360Z,84.00
2017-09-11T19:33:43.647Z,84.40
2017-09-11T19:36:11.171Z,84.50
2017-09-11T19:38:38.710Z,84.60
2017-09-11T19:41:06.994Z,85.00
2017-09-11T19:43:34.535Z,85.00
2017-09-11T19:46:02.828Z,85.40
2017-09-11T19:48:30.368Z,85.50
2017-09-11T19:50:57.897Z,85.80
2017-09-11T19:53:25.447Z,85.60
2017-09-11T19:55:53.738Z,86.20
2017-09-11T19:58:21.280Z,86.00
2017-09-11T20:00:49.567Z,86.30
2017-09-11T20:03:17.111Z,86.10
2017-09-11T20:05:45.400Z,86.70
2017-09-11T20:08:12.939Z,86.70
2017-09-11T20:10:41.232Z,87.40
2017-09-11T20:13:09.555Z,87.50
2017-09-11T20:15:37.087Z,87.50
2017-09-11T20:18:04.603Z,87.70
2017-09-11T20:20:32.143Z,88.00
2017-09-11T20:22:59.701Z,88.40
2017-09-11T20:25:27.236Z,88.60
2017-09-11T20:27:54.759Z,88.80
2017-09-11T20:30:23.062Z,89.00
2017-09-11T20:32:50.584Z,89.00
2017-09-11T20:35:18.125Z,89.40
2017-09-11T20:37:45.649Z,89.30
2017-09-11T20:40:13.190Z,89.80
2017-09-11T20:42:40.716Z,90.00
2017-09-11T20:45:08.262Z,90.20
2017-09-11T20:47:35.784Z,90.50
2017-09-11T20:50:04.107Z,91.10
2017-09-11T20:52:31.633Z,90.70
2017-09-11T20:54:59.919Z,90.90
2017-09-11T20:57:27.467Z,90.90
2017-09-11T20:59:55.765Z,91.10
2017-09-11T21:02:23.313Z,91.10
2017-09-11T21:04:50.837Z,91.30
2017-09-11T21:07:18.382Z,91.50
2017-09-11T21:09:45.898Z,91.40
2017-09-11T21:12:13.444Z,91.50
2017-09-11T21:14:40.968Z,91.60
2017-09-11T21:17:08.507Z,91.50
2017-09-11T21:19:36.031Z,91.70
2017-09-11T21:22:03.576Z,91.70
2017-09-11T21:24:31.090Z,91.60
2017-09-11T21:26:58.625Z,91.50
2017-09-11T21:29:26.152Z,91.40
2017-09-11T21:31:53.686Z,91.70
2017-09-11T21:34:21.974Z,91.60
2017-09-11T21:36:49.520Z,91.60
2017-09-11T21:39:17.802Z,92.00
2017-09-11T21:41:45.342Z,92.00
2017-09-11T21:44:12.883Z,92.10
2017-09-11T21:46:40.400Z,92.20
2017-09-11T21:49:07.946Z,92.40
2017-09-11T21:51:36.225Z,92.60
2017-09-11T21:54:04.526Z,92.40
2017-09-11T21:56:32.043Z,92.40
2017-09-11T21:58:59.588Z,92.20
2017-09-11T22:01:27.111Z,91.90
2017-09-11T22:03:54.654Z,92.40
2017-09-11T22:06:22.182Z,92.60
2017-09-11T22:08:49.724Z,92.60
2017-09-11T22:11:17.247Z,93.00
2017-09-11T22:13:44.779Z,93.00
2017-09-11T22:16:13.059Z,93.60
2017-09-11T22:18:41.358Z,93.60
2017-09-11T22:21:08.871Z,93.60
2017-09-11T22:23:36.407Z,93.70
2017-09-11T22:26:03.932Z,93.70
2017-09-11T22:28:31.477Z,93.60
2017-09-11T22:30:59.763Z,93.10
2017-09-11T22:33:27.298Z,93.10
2017-09-11T22:35:55.579Z,93.70
2017-09-11T22:38:23.885Z,94.30
2017-09-11T22:40:51.410Z,94.30
2017-09-11T22:43:18.955Z,94.60
2017-09-11T22:45:46.476Z,95.40
2017-09-11T22:48:14.014Z,95.40
2017-09-11T22:50:41.535Z,95.40
2017-09-11T22:53:11.691Z,95.50
2017-09-11T22:55:39.978Z,95.30
2017-09-11T22:58:07.519Z,95.30
2017-09-11T23:00:35.812Z,95.00
2017-09-11T23:03:03.352Z,95.00
2017-09-11T23:05:31.632Z,95.20
2017-09-11T23:07:59.938Z,95.20
2017-09-11T23:10:27.457Z,95.10
2017-09-11T23:12:55.767Z,95.50
2017-09-11T23:15:23.283Z,95.50
2017-09-11T23:17:50.828Z,95.40
2017-09-11T23:20:18.342Z,94.90
2017-09-11T23:22:45.885Z,94.70
2017-09-11T23:25:14.170Z,93.80
2017-09-11T23:27:41.714Z,93.80
2017-09-11T23:30:09.999Z,93.10
2017-09-11T23:32:38.300Z,92.80
2017-09-11T23:35:05.824Z,92.80
2017-09-11T23:37:34.127Z,92.40
2017-09-11T23:40:01.658Z,92.40
2017-09-11T23:42:29.967Z,92.10
2017-09-11T23:44:57.498Z,92.10
2017-09-11T23:47:25.808Z,91.60
2017-09-11T23:49:53.335Z,91.60
2017-09-11T23:52:21.643Z,91.50
2017-09-11T23:54:49.168Z,91.50
2017-09-11T23:57:17.470Z,91.60
2017-09-11T23:59:44.995Z,91.60
